1A6

Middlesboro-Bell County Airport

Middlesboro, Kentucky, USA
METAR K1A6 242235Z AUTO 00000KT 10SM BKN065 BKN090 22/22 A3013 RMK AO2 T02200216
Observed Flight Rules
Sep-24 @ 22:35 UTC (44 minutes ago) Visual Flight Rules
Visibility Clouds
10 miles
  • Broken at 6,500' AGL
  • Broken at 9,000' AGL
Temperatures Readings
Current 22°C / 72°F
Dewpoint 22°C / 72°F
Humidity 100%
Altimeter 30.13" Hg
Pressure 1020 hPa
Elevation 352
METAR K1A6 242235Z AUTO 00000KT 10SM BKN065 BKN090 22/22 A3013 RMK AO2 T02200216
Observed Flight Rules
Sep-24 @ 22:35 UTC
(44 minutes ago)
VFR
Clouds
  • Broken at 6,500' AGL
  • Broken at 9,000' AGL
Temperature Dewpoint
22°C / 72°F 22°C / 72°F
Humidity Altimeter Pressure
100% 30.13" Hg 1020 hPa